Home > Products > Valid Products > MTR

000
SAUS46 KSTO 251253
MTRBLU
METAR KBLU 251252Z AUTO 06004KT 10SM CLR 18/03 A3011 RMK AO2 SLP095
T01830033





000
SAUS46 KSTO 251153
MTRBLU
METAR KBLU 251152Z AUTO 35003KT 10SM CLR 19/02 A3011 RMK AO2 SLP093
T01890017 10206 20189 56005





000
SAUS46 KSTO 251053
MTRBLU
METAR KBLU 251052Z AUTO 00000KT 10SM CLR 20/04 A3011 RMK AO2 SLP088
T02000044





000
SAUS46 KSTO 250953
MTRBLU
METAR KBLU 250952Z AUTO 00000KT 10SM CLR 19/04 A3011 RMK AO2 SLP092
T01890044





000
SAUS46 KSTO 250853
MTRBLU
METAR KBLU 250852Z AUTO 00000KT 10SM CLR 20/04 A3012 RMK AO2 SLP093
T02000044 58003





000
SAUS46 KSTO 250753
MTRBLU
METAR KBLU 250752Z AUTO 00000KT 10SM CLR 21/04 A3013 RMK AO2 SLP098
T02060044 402610156





000
SAUS46 KSTO 250653
MTRBLU
METAR KBLU 250652Z AUTO 06003KT 10SM CLR 19/05 A3013 RMK AO2 SLP106
T01940050





000
SAUS46 KSTO 250553
MTRBLU
METAR KBLU 250552Z AUTO 03003KT 10SM CLR 19/04 A3013 RMK AO2 SLP106
T01940044 10250 20189 50002





000
SAUS46 KSTO 250453
MTRBLU
METAR KBLU 250452Z AUTO 34003KT 10SM CLR 19/04 A3014 RMK AO2 SLP110
T01940039





000
SAUS46 KSTO 250353
MTRBLU
METAR KBLU 250352Z AUTO 29003KT 10SM CLR 20/04 A3014 RMK AO2 SLP112
T02000044





000
SAUS46 KSTO 250253
MTRBLU
METAR KBLU 250252Z AUTO 28005KT 10SM CLR 22/04 A3013 RMK AO2 SLP105
T02220044 56004





000
SAUS46 KSTO 250153
MTRBLU
METAR KBLU 250152Z AUTO 28005KT 10SM CLR 23/04 A3013 RMK AO2 SLP107
T02330039





000
SAUS46 KSTO 250053
MTRBLU
METAR KBLU 250052Z AUTO 24007KT 10SM CLR 24/04 A3013 RMK AO2 SLP104
T02440044





000
SAUS46 KSTO 242353
MTRBLU
METAR KBLU 242352Z AUTO 28007KT 10SM CLR 24/03 A3014 RMK AO2 SLP110
T02440033 10261 20217 56015





000
SAUS46 KSTO 242253
MTRBLU
METAR KBLU 242252Z AUTO 25004KT 10SM CLR 26/01 A3015 RMK AO2 SLP111
T02560006





000
SAUS46 KSTO 242153
MTRBLU
METAR KBLU 242152Z AUTO 22009KT 10SM CLR 25/00 A3017 RMK AO2 SLP120
T02500000





000
SAUS46 KSTO 242053
MTRBLU
METAR KBLU 242052Z AUTO VRB06G15KT 10SM CLR 25/01 A3019 RMK AO2
SLP127 T02500011 56008





000
SAUS46 KSTO 241953
MTRBLU
METAR KBLU 241952Z AUTO 23007KT 10SM CLR 24/01 A3019 RMK AO2 SLP129
T02390011





000
SAUS46 KSTO 241853
MTRBLU
METAR KBLU 241852Z AUTO VRB05KT 10SM CLR 23/M01 A3021 RMK AO2 SLP140
T02281011





000
SAUS46 KSTO 241753
MTRBLU
METAR KBLU 241752Z AUTO 16006KT 10SM CLR 22/M01 A3022 RMK AO2 SLP143
T02221011 10228 20167 58001





000
SAUS46 KSTO 241653
MTRBLU
METAR KBLU 241652Z AUTO VRB04KT 10SM CLR 21/01 A3022 RMK AO2 SLP148
T02110006





000
SAUS46 KSTO 241553
MTRBLU
METAR KBLU 241552Z AUTO 16004KT 10SM CLR 20/02 A3023 RMK AO2 SLP153
T02000017





000
SAUS46 KSTO 241453
MTRBLU
METAR KBLU 241452Z AUTO 00000KT 10SM CLR 19/02 A3022 RMK AO2 SLP148
T01890017 53002





000
SAUS46 KSTO 241353
MTRBLU
METAR KBLU 241352Z AUTO 09003KT 10SM CLR 17/M01 A3021 RMK AO2 SLP147
T01721011





000
SAUS46 KSTO 241253
MTRBLU
METAR KBLU 241252Z AUTO 07004KT 10SM CLR 17/M04 A3021 RMK AO2 SLP143
T01721039





000
SAUS46 KSTO 241153
MTRBLU
METAR KBLU 241152Z AUTO 07003KT 10SM CLR 17/M02 A3021 RMK AO2 SLP145
T01671022 10172 20156 56006





000
SAUS46 KSTO 241053
MTRBLU
METAR KBLU 241052Z AUTO 10003KT 10SM CLR 16/M01 A3022 RMK AO2 SLP146
T01611011





000
SAUS46 KSTO 240953
MTRBLU
METAR KBLU 240952Z AUTO 09004KT 10SM CLR 16/00 A3023 RMK AO2 SLP150
T01560000





000
SAUS46 KSTO 240853
MTRBLU
METAR KBLU 240852Z AUTO 00000KT 10SM CLR 16/01 A3024 RMK AO2 SLP157
T01610011 58001





000
SAUS46 KSTO 240753
MTRBLU
METAR KBLU 240752Z AUTO 00000KT 10SM CLR 17/02 A3024 RMK AO2 SLP155
T01670022 402220144





000
SAUS46 KSTO 240654
MTRBLU
METAR KBLU 240652Z AUTO 00000KT 10SM CLR 16/03 A3024 RMK AO2 SLP157
T01610028





000
SAUS46 KSTO 240553
MTRBLU
METAR KBLU 240552Z AUTO 06003KT 10SM CLR 16/03 A3024 RMK AO2 SLP161
T01610028 10217 20156 58002





000
SAUS46 KSTO 240453
MTRBLU
METAR KBLU 240452Z AUTO 08003KT 10SM CLR 16/04 A3025 RMK AO2 SLP166
T01610039





000
SAUS46 KSTO 240353
MTRBLU
METAR KBLU 240352Z AUTO 00000KT 10SM CLR 17/03 A3025 RMK AO2 SLP169
T01670033





000
SAUS46 KSTO 240254
MTRBLU
METAR KBLU 240252Z AUTO 22003KT 10SM CLR 19/03 A3025 RMK AO2 SLP163
T01890028 56006





000
SAUS46 KSTO 240154
MTRBLU
METAR KBLU 240152Z AUTO 22007KT 180V250 10SM CLR 19/03 A3025 RMK AO2
SLP168 T01940033





000
SAUS46 KSTO 240054
MTRBLU
METAR KBLU 240052Z AUTO 22005KT 10SM CLR 21/04 A3026 RMK AO2 SLP167
T02060039





000
SAUS46 KSTO 232353
MTRBLU
METAR KBLU 232352Z AUTO 23006KT 10SM CLR 21/03 A3027 RMK AO2 SLP169
T02110033 10222 20189 58009





000
SAUS46 KSTO 232253
MTRBLU
METAR KBLU 232252Z AUTO 21009G17KT 160V230 10SM CLR 21/04 A3028 RMK
AO2 SLP172 T02110044





000
SAUS46 KSTO 232154
MTRBLU
METAR KBLU 232152Z AUTO 18012G18KT 10SM CLR 22/04 A3029 RMK AO2
SLP177 T02170044





000
SAUS46 KSTO 232054
MTRBLU
METAR KBLU 232052Z AUTO 19011G17KT 140V210 10SM CLR 21/06 A3030 RMK
AO2 SLP179 T02060056 51001





000
SAUS46 KSTO 231953
MTRBLU
METAR KBLU 231952Z AUTO 19011G22KT 10SM CLR 21/07 A3030 RMK AO2
SLP181 T02060067





000
SAUS46 KSTO 231854
MTRBLU
METAR KBLU 231852Z AUTO 19009KT 10SM CLR 21/08 A3030 RMK AO2 SLP180
T02060083





000
SAUS46 KSTO 231754
MTRBLU
METAR KBLU 231752Z AUTO 17010G16KT 10SM CLR 19/10 A3030 RMK AO2
SLP183 T01890100 10194 20144 51006





000
SAUS46 KSTO 231653
MTRBLU
METAR KBLU 231652Z AUTO 16012G19KT 10SM CLR 18/11 A3029 RMK AO2
SLP185 T01780106





000
SAUS46 KSTO 231553
MTRBLU
METAR KBLU 231552Z AUTO 16011KT 10SM CLR 17/10 A3028 RMK AO2 SLP179
T01670100





000
SAUS46 KSTO 231453
MTRBLU
METAR KBLU 231452Z AUTO 17007KT 10SM CLR 16/10 A3027 RMK AO2 SLP172
T01610100 53010





000
SAUS46 KSTO 231353
MTRBLU
METAR KBLU 231352Z AUTO 15009KT 10SM CLR 15/09 A3026 RMK AO2 SLP166
T01500094





000
SAUS46 KSTO 231253
MTRBLU
METAR KBLU 231252Z AUTO 16008KT 10SM CLR 14/10 A3025 RMK AO2 SLP164
T01440100





000
SAUS46 KSTO 231154
MTRBLU
METAR KBLU 231152Z AUTO 15007KT 10SM CLR 15/10 A3024 RMK AO2 SLP157
T01500100 10156 20144 58003





000
SAUS46 KSTO 231054
MTRBLU
METAR KBLU 231052Z AUTO 14005KT 10SM CLR 15/09 A3024 RMK AO2 SLP155
T01500094





000
SAUS46 KSTO 230954
MTRBLU
METAR KBLU 230952Z AUTO 14006KT 10SM CLR 15/09 A3025 RMK AO2 SLP157
T01500089





000
SAUS46 KSTO 230854
MTRBLU
METAR KBLU 230852Z AUTO 14005KT 10SM CLR 16/09 A3025 RMK AO2 SLP157
T01560089 55000





000
SAUS46 KSTO 230753
MTRBLU
METAR KBLU 230752Z AUTO 13004KT 10SM CLR 15/09 A3025 RMK AO2 SLP157
T01500094 402280139





000
SAUS46 KSTO 230653
MTRBLU
METAR KBLU 230652Z AUTO 13004KT 10SM CLR 16/10 A3025 RMK AO2 SLP156
T01560100





000
SAUS46 KSTO 230553
MTRBLU
METAR KBLU 230552Z AUTO 11003KT 10SM CLR 15/10 A3025 RMK AO2 SLP163
T01500100 10217 20139 50001





000
SAUS46 KSTO 230453
MTRBLU
METAR KBLU 230452Z AUTO 00000KT 10SM CLR 16/10 A3025 RMK AO2 SLP164
T01560100





000
SAUS46 KSTO 230353
MTRBLU
METAR KBLU 230352Z AUTO 20005KT 10SM CLR 17/10 A3024 RMK AO2 SLP162
T01720100





000
SAUS46 KSTO 230353
MTRBLU
METAR KBLU 230352Z AUTO 20005KT 10SM CLR 17/10 A3024 RMK AO2 SLP162
T01720100





000
SAUS46 KSTO 230253
MTRBLU
METAR KBLU 230252Z AUTO 20005KT 10SM CLR 19/10 A3024 RMK AO2 SLP159
T01890100 55003





000
SAUS46 KSTO 230153
MTRBLU
METAR KBLU 230152Z AUTO 19009KT 10SM CLR 20/11 A3024 RMK AO2 SLP155
T02000106





000
SAUS46 KSTO 230053
MTRBLU
METAR KBLU 230052Z AUTO 20007KT 10SM FEW033 21/11 A3025 RMK AO2
SLP157 T02060106





000
SAUS46 KSTO 222353
MTRBLU
METAR KBLU 222352Z AUTO 21010KT 10SM BKN041 21/10 A3025 RMK AO2
SLP159 T02110100 10228 20200 58005





000
SAUS46 KSTO 222253
MTRBLU
METAR KBLU 222252Z AUTO 17008G15KT 10SM CLR 22/09 A3026 RMK AO2
SLP157 T02220094





000
SAUS46 KSTO 222153
MTRBLU
METAR KBLU 222152Z AUTO 21008KT 10SM CLR 22/09 A3027 RMK AO2 SLP160
T02220089





000
SAUS46 KSTO 222053
MTRBLU
METAR KBLU 222052Z AUTO 24007KT 200V280 10SM CLR 22/12 A3027 RMK AO2
SLP164 T02170117 56001





000
SAUS46 KSTO 221953
MTRBLU
METAR KBLU 221952Z AUTO VRB04KT 10SM CLR 22/07 A3027 RMK AO2 SLP165
T02220072





000
SAUS46 KSTO 221853
MTRBLU
METAR KBLU 221852Z AUTO 17006KT 10SM CLR 22/08 A3027 RMK AO2 SLP166
T02170083





000
SAUS46 KSTO 221753
MTRBLU
METAR KBLU 221752Z AUTO 19007KT 10SM CLR 21/10 A3027 RMK AO2 SLP170
T02060100 10206 20161 50003





000
SAUS46 KSTO 221653
MTRBLU
METAR KBLU 221652Z AUTO 13006KT 10SM BKN110 19/11 A3028 RMK AO2
SLP173 T01940106





000
SAUS46 KSTO 221553
MTRBLU
METAR KBLU 221552Z AUTO 00000KT 10SM OVC100 18/11 A3028 RMK AO2
SLP179 T01830106





000
SAUS46 KSTO 221453
MTRBLU
METAR KBLU 221452Z AUTO 17007KT 10SM FEW120 18/11 A3026 RMK AO2 LTG
DSNT SW SLP166 T01780106 53010





000
SAUS46 KSTO 221353
MTRBLU
METAR KBLU 221352Z AUTO 13003KT 10SM CLR 17/10 A3024 RMK AO2 SLP153
T01720100





    US Dept of Commerce
    National Oceanic and Atmospheric Administration
    National Weather Service
    1325 East West Highway
    Silver Spring, MD 20910
    Page Author: NWS Internet Services Team
Disclaimer
Information Quality
Credits
Glossary
Privacy Policy
Freedom of Information Act (FOIA)
About Us
Career Opportunities